sensor_id;sensor_type;location;lat;lon;timestamp;P1;durP1;ratioP1;P2;durP2;ratioP2
31386;SDS011;18017;50.124;8.688;2022-11-20T00:01:04;19.08;;;6.57;;
31386;SDS011;18017;50.124;8.688;2022-11-20T00:03:37;20.08;;;7.60;;
31386;SDS011;18017;50.124;8.688;2022-11-20T00:06:07;18.73;;;6.72;;
31386;SDS011;18017;50.124;8.688;2022-11-20T00:08:34;21.25;;;7.90;;
31386;SDS011;18017;50.124;8.688;2022-11-20T00:11:07;20.38;;;7.00;;
31386;SDS011;18017;50.124;8.688;2022-11-20T00:13:34;23.63;;;8.18;;
31386;SDS011;18017;50.124;8.688;2022-11-20T00:16:00;18.85;;;7.10;;
31386;SDS011;18017;50.124;8.688;2022-11-20T00:18:28;18.83;;;7.60;;
31386;SDS011;18017;50.124;8.688;2022-11-20T00:21:00;18.83;;;6.88;;
31386;SDS011;18017;50.124;8.688;2022-11-20T00:23:29;20.05;;;7.43;;
31386;SDS011;18017;50.124;8.688;2022-11-20T00:25:55;19.55;;;7.40;;
31386;SDS011;18017;50.124;8.688;2022-11-20T00:28:20;18.60;;;7.22;;
31386;SDS011;18017;50.124;8.688;2022-11-20T00:30:46;18.75;;;6.05;;
31386;SDS011;18017;50.124;8.688;2022-11-20T00:33:12;22.38;;;8.07;;
31386;SDS011;18017;50.124;8.688;2022-11-20T00:35:37;19.33;;;6.70;;
31386;SDS011;18017;50.124;8.688;2022-11-20T00:38:03;18.30;;;7.05;;
31386;SDS011;18017;50.124;8.688;2022-11-20T00:40:28;19.55;;;7.03;;
31386;SDS011;18017;50.124;8.688;2022-11-20T00:42:54;21.23;;;7.07;;
31386;SDS011;18017;50.124;8.688;2022-11-20T00:45:19;19.48;;;6.47;;
31386;SDS011;18017;50.124;8.688;2022-11-20T00:47:45;17.92;;;6.40;;
31386;SDS011;18017;50.124;8.688;2022-11-20T00:50:10;18.67;;;6.57;;
31386;SDS011;18017;50.124;8.688;2022-11-20T00:52:36;15.40;;;6.15;;
31386;SDS011;18017;50.124;8.688;2022-11-20T00:55:02;17.80;;;6.60;;
31386;SDS011;18017;50.124;8.688;2022-11-20T00:57:27;18.10;;;6.93;;
31386;SDS011;18017;50.124;8.688;2022-11-20T00:59:53;15.85;;;6.22;;
31386;SDS011;18017;50.124;8.688;2022-11-20T01:02:18;16.02;;;6.60;;
31386;SDS011;18017;50.124;8.688;2022-11-20T01:04:44;18.98;;;7.22;;
31386;SDS011;18017;50.124;8.688;2022-11-20T01:07:10;18.50;;;6.97;;
31386;SDS011;18017;50.124;8.688;2022-11-20T01:09:35;16.35;;;6.60;;
31386;SDS011;18017;50.124;8.688;2022-11-20T01:12:01;19.08;;;7.32;;
31386;SDS011;18017;50.124;8.688;2022-11-20T01:14:26;18.63;;;6.45;;
31386;SDS011;18017;50.124;8.688;2022-11-20T01:16:52;20.00;;;6.82;;
31386;SDS011;18017;50.124;8.688;2022-11-20T01:19:19;21.20;;;7.07;;
31386;SDS011;18017;50.124;8.688;2022-11-20T01:21:47;23.67;;;8.15;;
31386;SDS011;18017;50.124;8.688;2022-11-20T01:24:15;18.27;;;6.78;;
31386;SDS011;18017;50.124;8.688;2022-11-20T01:26:42;22.50;;;7.90;;
31386;SDS011;18017;50.124;8.688;2022-11-20T01:29:16;21.25;;;7.25;;
31386;SDS011;18017;50.124;8.688;2022-11-20T01:31:43;22.88;;;7.95;;
31386;SDS011;18017;50.124;8.688;2022-11-20T01:34:10;22.98;;;7.50;;
31386;SDS011;18017;50.124;8.688;2022-11-20T01:36:38;20.17;;;7.50;;
31386;SDS011;18017;50.124;8.688;2022-11-20T01:39:06;20.77;;;7.20;;
31386;SDS011;18017;50.124;8.688;2022-11-20T01:41:58;18.40;;;7.22;;
31386;SDS011;18017;50.124;8.688;2022-11-20T01:44:54;21.45;;;7.50;;
31386;SDS011;18017;50.124;8.688;2022-11-20T01:47:43;22.15;;;7.63;;
31386;SDS011;18017;50.124;8.688;2022-11-20T01:50:26;19.35;;;7.22;;
31386;SDS011;18017;50.124;8.688;2022-11-20T01:52:55;26.90;;;8.25;;
31386;SDS011;18017;50.124;8.688;2022-11-20T01:55:45;19.02;;;7.30;;
31386;SDS011;18017;50.124;8.688;2022-11-20T01:58:18;25.00;;;8.07;;
31386;SDS011;18017;50.124;8.688;2022-11-20T02:00:47;19.50;;;7.45;;
31386;SDS011;18017;50.124;8.688;2022-11-20T02:03:15;19.25;;;7.50;;
31386;SDS011;18017;50.124;8.688;2022-11-20T02:06:03;19.60;;;7.55;;
31386;SDS011;18017;50.124;8.688;2022-11-20T02:08:37;20.45;;;6.88;;
31386;SDS011;18017;50.124;8.688;2022-11-20T02:11:03;20.63;;;6.95;;
31386;SDS011;18017;50.124;8.688;2022-11-20T02:13:28;22.48;;;7.57;;
31386;SDS011;18017;50.124;8.688;2022-11-20T02:16:14;17.83;;;6.40;;
31386;SDS011;18017;50.124;8.688;2022-11-20T02:18:40;19.10;;;7.40;;
31386;SDS011;18017;50.124;8.688;2022-11-20T02:24:16;22.25;;;7.68;;
31386;SDS011;18017;50.124;8.688;2022-11-20T02:26:50;24.45;;;7.93;;
31386;SDS011;18017;50.124;8.688;2022-11-20T02:29:37;20.60;;;7.20;;
31386;SDS011;18017;50.124;8.688;2022-11-20T02:32:22;19.13;;;6.80;;
31386;SDS011;18017;50.124;8.688;2022-11-20T02:34:50;17.85;;;7.20;;
31386;SDS011;18017;50.124;8.688;2022-11-20T02:37:16;21.67;;;7.45;;
31386;SDS011;18017;50.124;8.688;2022-11-20T02:39:43;20.50;;;7.38;;
31386;SDS011;18017;50.124;8.688;2022-11-20T02:42:10;21.40;;;7.75;;
31386;SDS011;18017;50.124;8.688;2022-11-20T02:44:36;20.13;;;6.97;;
31386;SDS011;18017;50.124;8.688;2022-11-20T02:47:02;17.85;;;6.88;;
31386;SDS011;18017;50.124;8.688;2022-11-20T02:49:28;21.65;;;7.80;;
31386;SDS011;18017;50.124;8.688;2022-11-20T02:51:53;19.88;;;7.72;;
31386;SDS011;18017;50.124;8.688;2022-11-20T02:54:19;19.75;;;7.28;;
31386;SDS011;18017;50.124;8.688;2022-11-20T02:56:44;18.90;;;7.00;;
31386;SDS011;18017;50.124;8.688;2022-11-20T02:59:10;22.00;;;7.50;;
31386;SDS011;18017;50.124;8.688;2022-11-20T03:01:35;22.85;;;7.45;;
31386;SDS011;18017;50.124;8.688;2022-11-20T03:04:01;20.02;;;7.30;;
31386;SDS011;18017;50.124;8.688;2022-11-20T03:06:27;21.50;;;7.45;;
31386;SDS011;18017;50.124;8.688;2022-11-20T03:08:52;20.73;;;7.35;;
31386;SDS011;18017;50.124;8.688;2022-11-20T03:11:18;18.27;;;7.28;;
31386;SDS011;18017;50.124;8.688;2022-11-20T03:13:44;17.90;;;6.93;;
31386;SDS011;18017;50.124;8.688;2022-11-20T03:16:16;22.08;;;7.70;;
31386;SDS011;18017;50.124;8.688;2022-11-20T03:18:45;23.20;;;7.68;;
31386;SDS011;18017;50.124;8.688;2022-11-20T03:21:11;19.35;;;7.38;;
31386;SDS011;18017;50.124;8.688;2022-11-20T03:23:38;21.60;;;7.30;;
31386;SDS011;18017;50.124;8.688;2022-11-20T03:26:14;19.92;;;7.25;;
31386;SDS011;18017;50.124;8.688;2022-11-20T03:28:42;21.85;;;7.40;;
31386;SDS011;18017;50.124;8.688;2022-11-20T03:31:13;23.45;;;7.93;;
31386;SDS011;18017;50.124;8.688;2022-11-20T03:33:39;27.98;;;8.57;;
31386;SDS011;18017;50.124;8.688;2022-11-20T03:36:07;23.33;;;8.20;;
31386;SDS011;18017;50.124;8.688;2022-11-20T03:38:34;24.20;;;7.93;;
31386;SDS011;18017;50.124;8.688;2022-11-20T03:41:01;24.88;;;8.07;;
31386;SDS011;18017;50.124;8.688;2022-11-20T03:43:28;22.98;;;8.05;;
31386;SDS011;18017;50.124;8.688;2022-11-20T03:45:54;22.75;;;8.18;;
31386;SDS011;18017;50.124;8.688;2022-11-20T03:48:20;22.10;;;7.97;;
31386;SDS011;18017;50.124;8.688;2022-11-20T03:50:45;23.25;;;7.75;;
31386;SDS011;18017;50.124;8.688;2022-11-20T03:53:12;24.25;;;8.73;;
31386;SDS011;18017;50.124;8.688;2022-11-20T03:55:38;26.63;;;9.10;;
31386;SDS011;18017;50.124;8.688;2022-11-20T03:58:04;22.77;;;8.30;;
31386;SDS011;18017;50.124;8.688;2022-11-20T04:00:29;23.38;;;8.13;;
31386;SDS011;18017;50.124;8.688;2022-11-20T04:02:58;23.15;;;8.20;;
31386;SDS011;18017;50.124;8.688;2022-11-20T04:05:24;22.83;;;7.82;;
31386;SDS011;18017;50.124;8.688;2022-11-20T04:07:50;22.15;;;8.57;;
31386;SDS011;18017;50.124;8.688;2022-11-20T04:10:16;22.95;;;8.05;;
31386;SDS011;18017;50.124;8.688;2022-11-20T04:12:41;23.02;;;8.30;;
31386;SDS011;18017;50.124;8.688;2022-11-20T04:15:07;24.40;;;8.55;;
31386;SDS011;18017;50.124;8.688;2022-11-20T04:17:33;25.25;;;8.57;;
31386;SDS011;18017;50.124;8.688;2022-11-20T04:19:58;21.85;;;7.55;;
31386;SDS011;18017;50.124;8.688;2022-11-20T04:22:24;23.55;;;7.97;;
31386;SDS011;18017;50.124;8.688;2022-11-20T04:24:50;22.90;;;7.97;;
31386;SDS011;18017;50.124;8.688;2022-11-20T04:27:15;25.35;;;8.35;;
31386;SDS011;18017;50.124;8.688;2022-11-20T04:29:41;25.50;;;8.38;;
31386;SDS011;18017;50.124;8.688;2022-11-20T04:32:06;24.85;;;8.48;;
31386;SDS011;18017;50.124;8.688;2022-11-20T04:34:32;24.02;;;8.65;;
31386;SDS011;18017;50.124;8.688;2022-11-20T04:36:58;18.08;;;7.10;;
31386;SDS011;18017;50.124;8.688;2022-11-20T04:39:23;20.25;;;7.50;;
31386;SDS011;18017;50.124;8.688;2022-11-20T04:41:49;23.73;;;7.95;;
31386;SDS011;18017;50.124;8.688;2022-11-20T04:44:34;22.88;;;7.40;;
31386;SDS011;18017;50.124;8.688;2022-11-20T04:47:00;21.40;;;7.32;;
31386;SDS011;18017;50.124;8.688;2022-11-20T04:49:25;23.67;;;8.00;;
31386;SDS011;18017;50.124;8.688;2022-11-20T04:51:53;24.45;;;8.05;;
31386;SDS011;18017;50.124;8.688;2022-11-20T04:54:18;20.00;;;7.05;;
31386;SDS011;18017;50.124;8.688;2022-11-20T04:56:47;23.13;;;7.57;;
31386;SDS011;18017;50.124;8.688;2022-11-20T04:59:13;21.55;;;7.78;;
31386;SDS011;18017;50.124;8.688;2022-11-20T05:01:38;24.42;;;8.85;;
31386;SDS011;18017;50.124;8.688;2022-11-20T05:04:04;22.00;;;8.32;;
31386;SDS011;18017;50.124;8.688;2022-11-20T05:06:30;21.30;;;7.90;;
31386;SDS011;18017;50.124;8.688;2022-11-20T05:08:56;20.98;;;7.38;;
31386;SDS011;18017;50.124;8.688;2022-11-20T05:11:22;22.25;;;7.63;;
31386;SDS011;18017;50.124;8.688;2022-11-20T05:13:48;21.27;;;7.80;;
31386;SDS011;18017;50.124;8.688;2022-11-20T05:16:16;21.33;;;8.18;;
31386;SDS011;18017;50.124;8.688;2022-11-20T05:18:43;24.25;;;8.88;;
31386;SDS011;18017;50.124;8.688;2022-11-20T05:21:09;25.58;;;9.02;;
31386;SDS011;18017;50.124;8.688;2022-11-20T05:23:36;24.05;;;8.32;;
31386;SDS011;18017;50.124;8.688;2022-11-20T05:26:02;27.85;;;8.57;;
31386;SDS011;18017;50.124;8.688;2022-11-20T05:28:29;24.48;;;8.93;;
31386;SDS011;18017;50.124;8.688;2022-11-20T05:30:55;25.42;;;8.35;;
31386;SDS011;18017;50.124;8.688;2022-11-20T05:33:21;25.63;;;7.57;;
31386;SDS011;18017;50.124;8.688;2022-11-20T05:35:47;26.20;;;8.18;;
31386;SDS011;18017;50.124;8.688;2022-11-20T05:38:13;22.85;;;7.95;;
31386;SDS011;18017;50.124;8.688;2022-11-20T05:40:39;26.50;;;8.02;;
31386;SDS011;18017;50.124;8.688;2022-11-20T05:43:04;23.60;;;7.43;;
31386;SDS011;18017;50.124;8.688;2022-11-20T05:45:30;21.40;;;7.95;;
31386;SDS011;18017;50.124;8.688;2022-11-20T05:47:59;23.70;;;7.65;;
31386;SDS011;18017;50.124;8.688;2022-11-20T05:50:25;25.67;;;7.80;;
31386;SDS011;18017;50.124;8.688;2022-11-20T05:52:51;24.70;;;7.88;;
31386;SDS011;18017;50.124;8.688;2022-11-20T05:55:17;26.92;;;8.80;;
31386;SDS011;18017;50.124;8.688;2022-11-20T05:57:42;30.80;;;8.70;;
31386;SDS011;18017;50.124;8.688;2022-11-20T06:00:08;23.63;;;8.50;;
31386;SDS011;18017;50.124;8.688;2022-11-20T06:02:34;23.58;;;8.07;;
31386;SDS011;18017;50.124;8.688;2022-11-20T06:05:00;26.00;;;8.40;;
31386;SDS011;18017;50.124;8.688;2022-11-20T06:07:26;25.10;;;7.53;;
31386;SDS011;18017;50.124;8.688;2022-11-20T06:09:51;27.52;;;8.35;;
31386;SDS011;18017;50.124;8.688;2022-11-20T06:12:17;26.40;;;8.10;;
31386;SDS011;18017;50.124;8.688;2022-11-20T06:14:43;30.98;;;9.18;;
31386;SDS011;18017;50.124;8.688;2022-11-20T06:17:08;24.88;;;8.52;;
31386;SDS011;18017;50.124;8.688;2022-11-20T06:19:34;29.17;;;8.93;;
31386;SDS011;18017;50.124;8.688;2022-11-20T06:21:59;25.33;;;8.73;;
31386;SDS011;18017;50.124;8.688;2022-11-20T06:24:25;28.08;;;8.45;;
31386;SDS011;18017;50.124;8.688;2022-11-20T06:26:50;28.17;;;8.27;;
31386;SDS011;18017;50.124;8.688;2022-11-20T06:29:16;33.63;;;9.63;;
31386;SDS011;18017;50.124;8.688;2022-11-20T06:31:42;29.73;;;8.90;;
31386;SDS011;18017;50.124;8.688;2022-11-20T06:34:07;25.95;;;8.60;;
31386;SDS011;18017;50.124;8.688;2022-11-20T06:36:33;30.27;;;8.85;;
31386;SDS011;18017;50.124;8.688;2022-11-20T06:38:59;26.73;;;8.98;;
31386;SDS011;18017;50.124;8.688;2022-11-20T06:41:25;28.23;;;8.52;;
31386;SDS011;18017;50.124;8.688;2022-11-20T06:43:51;29.70;;;9.40;;
31386;SDS011;18017;50.124;8.688;2022-11-20T06:46:17;28.60;;;7.93;;
31386;SDS011;18017;50.124;8.688;2022-11-20T06:48:43;31.20;;;9.23;;
31386;SDS011;18017;50.124;8.688;2022-11-20T06:51:09;35.05;;;9.90;;
31386;SDS011;18017;50.124;8.688;2022-11-20T06:53:35;30.60;;;9.40;;
31386;SDS011;18017;50.124;8.688;2022-11-20T06:56:02;25.95;;;8.65;;
31386;SDS011;18017;50.124;8.688;2022-11-20T06:58:28;34.55;;;9.75;;
31386;SDS011;18017;50.124;8.688;2022-11-20T07:01:03;36.67;;;9.55;;
31386;SDS011;18017;50.124;8.688;2022-11-20T07:03:30;29.85;;;9.45;;
31386;SDS011;18017;50.124;8.688;2022-11-20T07:05:56;30.30;;;9.13;;
31386;SDS011;18017;50.124;8.688;2022-11-20T07:08:23;32.90;;;9.57;;
31386;SDS011;18017;50.124;8.688;2022-11-20T07:10:49;36.95;;;9.73;;
31386;SDS011;18017;50.124;8.688;2022-11-20T07:13:14;38.90;;;9.40;;
31386;SDS011;18017;50.124;8.688;2022-11-20T07:15:40;36.63;;;9.32;;
31386;SDS011;18017;50.124;8.688;2022-11-20T07:18:05;36.95;;;10.73;;
31386;SDS011;18017;50.124;8.688;2022-11-20T07:20:31;40.13;;;9.77;;
31386;SDS011;18017;50.124;8.688;2022-11-20T07:22:57;40.95;;;10.13;;
31386;SDS011;18017;50.124;8.688;2022-11-20T07:25:23;40.30;;;10.07;;
31386;SDS011;18017;50.124;8.688;2022-11-20T07:27:52;37.38;;;9.48;;
31386;SDS011;18017;50.124;8.688;2022-11-20T07:30:22;34.53;;;10.05;;
31386;SDS011;18017;50.124;8.688;2022-11-20T07:32:50;32.08;;;10.23;;
31386;SDS011;18017;50.124;8.688;2022-11-20T07:35:16;30.60;;;9.70;;
31386;SDS011;18017;50.124;8.688;2022-11-20T07:37:42;37.58;;;10.45;;
31386;SDS011;18017;50.124;8.688;2022-11-20T07:40:07;31.20;;;9.32;;
31386;SDS011;18017;50.124;8.688;2022-11-20T07:42:33;38.50;;;10.18;;
31386;SDS011;18017;50.124;8.688;2022-11-20T07:44:59;38.78;;;10.55;;
31386;SDS011;18017;50.124;8.688;2022-11-20T07:47:24;36.20;;;10.35;;
31386;SDS011;18017;50.124;8.688;2022-11-20T07:49:50;38.30;;;10.48;;
31386;SDS011;18017;50.124;8.688;2022-11-20T07:52:15;38.47;;;10.57;;
31386;SDS011;18017;50.124;8.688;2022-11-20T07:54:41;39.30;;;11.15;;
31386;SDS011;18017;50.124;8.688;2022-11-20T07:57:06;35.33;;;10.52;;
31386;SDS011;18017;50.124;8.688;2022-11-20T07:59:32;40.13;;;11.85;;
31386;SDS011;18017;50.124;8.688;2022-11-20T08:01:58;39.72;;;10.30;;
31386;SDS011;18017;50.124;8.688;2022-11-20T08:04:23;45.35;;;11.60;;
31386;SDS011;18017;50.124;8.688;2022-11-20T08:06:49;41.67;;;11.50;;
31386;SDS011;18017;50.124;8.688;2022-11-20T08:09:16;40.83;;;11.27;;
31386;SDS011;18017;50.124;8.688;2022-11-20T08:11:42;35.05;;;10.57;;
31386;SDS011;18017;50.124;8.688;2022-11-20T08:14:26;39.15;;;10.88;;
31386;SDS011;18017;50.124;8.688;2022-11-20T08:16:52;39.17;;;11.07;;
31386;SDS011;18017;50.124;8.688;2022-11-20T08:19:18;35.85;;;10.13;;
31386;SDS011;18017;50.124;8.688;2022-11-20T08:21:44;34.53;;;10.30;;
31386;SDS011;18017;50.124;8.688;2022-11-20T08:24:09;30.60;;;9.88;;
31386;SDS011;18017;50.124;8.688;2022-11-20T08:26:36;36.00;;;9.73;;
31386;SDS011;18017;50.124;8.688;2022-11-20T08:29:03;30.83;;;9.55;;
31386;SDS011;18017;50.124;8.688;2022-11-20T08:31:29;27.10;;;9.45;;
31386;SDS011;18017;50.124;8.688;2022-11-20T08:33:56;31.77;;;9.13;;
31386;SDS011;18017;50.124;8.688;2022-11-20T08:36:22;33.83;;;9.90;;
31386;SDS011;18017;50.124;8.688;2022-11-20T08:38:49;29.45;;;9.88;;
31386;SDS011;18017;50.124;8.688;2022-11-20T08:41:16;29.92;;;9.25;;
31386;SDS011;18017;50.124;8.688;2022-11-20T08:43:48;33.28;;;9.98;;
31386;SDS011;18017;50.124;8.688;2022-11-20T08:46:18;31.13;;;9.45;;
31386;SDS011;18017;50.124;8.688;2022-11-20T08:48:44;34.20;;;9.48;;
31386;SDS011;18017;50.124;8.688;2022-11-20T08:51:10;33.15;;;10.05;;
31386;SDS011;18017;50.124;8.688;2022-11-20T08:53:36;31.65;;;9.98;;
31386;SDS011;18017;50.124;8.688;2022-11-20T08:56:02;36.47;;;10.50;;
31386;SDS011;18017;50.124;8.688;2022-11-20T08:58:28;28.08;;;10.15;;
31386;SDS011;18017;50.124;8.688;2022-11-20T09:00:53;36.42;;;10.57;;
31386;SDS011;18017;50.124;8.688;2022-11-20T09:03:19;36.83;;;10.48;;
31386;SDS011;18017;50.124;8.688;2022-11-20T09:05:48;35.13;;;10.55;;
31386;SDS011;18017;50.124;8.688;2022-11-20T09:08:13;30.90;;;9.93;;
31386;SDS011;18017;50.124;8.688;2022-11-20T09:10:51;33.80;;;11.05;;
31386;SDS011;18017;50.124;8.688;2022-11-20T09:13:17;33.22;;;10.45;;
31386;SDS011;18017;50.124;8.688;2022-11-20T09:15:42;38.17;;;11.38;;
31386;SDS011;18017;50.124;8.688;2022-11-20T09:18:08;31.90;;;11.00;;
31386;SDS011;18017;50.124;8.688;2022-11-20T09:20:33;34.65;;;11.23;;
31386;SDS011;18017;50.124;8.688;2022-11-20T09:23:00;34.33;;;10.90;;
31386;SDS011;18017;50.124;8.688;2022-11-20T09:25:25;35.30;;;10.50;;
31386;SDS011;18017;50.124;8.688;2022-11-20T09:27:55;30.33;;;10.25;;
31386;SDS011;18017;50.124;8.688;2022-11-20T09:30:21;30.40;;;10.52;;
31386;SDS011;18017;50.124;8.688;2022-11-20T09:32:47;32.22;;;9.93;;
31386;SDS011;18017;50.124;8.688;2022-11-20T09:35:12;28.95;;;10.48;;
31386;SDS011;18017;50.124;8.688;2022-11-20T09:37:42;29.08;;;9.38;;
31386;SDS011;18017;50.124;8.688;2022-11-20T09:40:13;29.65;;;9.68;;
31386;SDS011;18017;50.124;8.688;2022-11-20T09:42:48;24.27;;;9.00;;
31386;SDS011;18017;50.124;8.688;2022-11-20T09:48:36;29.45;;;9.30;;
31386;SDS011;18017;50.124;8.688;2022-11-20T09:56:29;21.83;;;8.38;;
31386;SDS011;18017;50.124;8.688;2022-11-20T09:58:57;20.52;;;8.38;;
31386;SDS011;18017;50.124;8.688;2022-11-20T10:01:29;22.52;;;8.55;;
31386;SDS011;18017;50.124;8.688;2022-11-20T10:04:02;24.35;;;8.32;;
31386;SDS011;18017;50.124;8.688;2022-11-20T10:06:32;21.48;;;8.43;;
31386;SDS011;18017;50.124;8.688;2022-11-20T10:09:22;20.10;;;7.95;;
31386;SDS011;18017;50.124;8.688;2022-11-20T10:25:50;22.80;;;8.77;;
31386;SDS011;18017;50.124;8.688;2022-11-20T10:28:46;23.33;;;9.52;;
31386;SDS011;18017;50.124;8.688;2022-11-20T10:31:29;26.88;;;9.55;;
31386;SDS011;18017;50.124;8.688;2022-11-20T10:34:03;28.02;;;9.77;;
31386;SDS011;18017;50.124;8.688;2022-11-20T10:37:00;27.27;;;9.52;;
31386;SDS011;18017;50.124;8.688;2022-11-20T10:40:42;29.70;;;10.63;;
31386;SDS011;18017;50.124;8.688;2022-11-20T10:42:59;29.02;;;9.90;;
31386;SDS011;18017;50.124;8.688;2022-11-20T10:45:40;26.02;;;9.20;;
31386;SDS011;18017;50.124;8.688;2022-11-20T10:48:24;27.95;;;9.38;;
31386;SDS011;18017;50.124;8.688;2022-11-20T10:51:13;26.85;;;9.75;;
31386;SDS011;18017;50.124;8.688;2022-11-20T10:54:00;25.48;;;9.50;;
31386;SDS011;18017;50.124;8.688;2022-11-20T10:56:53;23.67;;;8.70;;
31386;SDS011;18017;50.124;8.688;2022-11-20T11:07:57;27.42;;;9.05;;
31386;SDS011;18017;50.124;8.688;2022-11-20T11:13:02;27.17;;;8.77;;
31386;SDS011;18017;50.124;8.688;2022-11-20T11:15:37;27.65;;;9.93;;
31386;SDS011;18017;50.124;8.688;2022-11-20T11:18:06;26.42;;;9.20;;
31386;SDS011;18017;50.124;8.688;2022-11-20T11:20:34;24.67;;;9.27;;
31386;SDS011;18017;50.124;8.688;2022-11-20T11:23:01;28.10;;;10.15;;
31386;SDS011;18017;50.124;8.688;2022-11-20T11:25:30;28.83;;;9.77;;
31386;SDS011;18017;50.124;8.688;2022-11-20T11:28:02;29.20;;;9.27;;
31386;SDS011;18017;50.124;8.688;2022-11-20T11:30:30;26.70;;;9.18;;
31386;SDS011;18017;50.124;8.688;2022-11-20T11:33:09;30.73;;;10.40;;
31386;SDS011;18017;50.124;8.688;2022-11-20T11:35:45;28.25;;;9.82;;
31386;SDS011;18017;50.124;8.688;2022-11-20T11:38:21;30.20;;;10.95;;
31386;SDS011;18017;50.124;8.688;2022-11-20T11:40:53;32.00;;;9.57;;
31386;SDS011;18017;50.124;8.688;2022-11-20T11:43:20;30.00;;;10.60;;
31386;SDS011;18017;50.124;8.688;2022-11-20T11:49:01;31.23;;;10.50;;
31386;SDS011;18017;50.124;8.688;2022-11-20T11:57:29;26.55;;;10.15;;
31386;SDS011;18017;50.124;8.688;2022-11-20T12:00:09;26.88;;;9.50;;
31386;SDS011;18017;50.124;8.688;2022-11-20T12:05:25;23.77;;;8.30;;
31386;SDS011;18017;50.124;8.688;2022-11-20T12:08:12;18.70;;;8.02;;
31386;SDS011;18017;50.124;8.688;2022-11-20T12:13:48;23.08;;;8.90;;
31386;SDS011;18017;50.124;8.688;2022-11-20T12:16:21;20.00;;;7.38;;
31386;SDS011;18017;50.124;8.688;2022-11-20T12:18:50;20.73;;;7.93;;
31386;SDS011;18017;50.124;8.688;2022-11-20T12:21:24;18.70;;;7.70;;
31386;SDS011;18017;50.124;8.688;2022-11-20T12:53:04;21.77;;;7.60;;
31386;SDS011;18017;50.124;8.688;2022-11-20T12:58:50;23.17;;;8.07;;
31386;SDS011;18017;50.124;8.688;2022-11-20T13:01:47;22.42;;;7.88;;
31386;SDS011;18017;50.124;8.688;2022-11-20T13:04:19;22.38;;;7.72;;
31386;SDS011;18017;50.124;8.688;2022-11-20T13:07:07;25.23;;;8.52;;
31386;SDS011;18017;50.124;8.688;2022-11-20T13:09:35;22.42;;;7.75;;
31386;SDS011;18017;50.124;8.688;2022-11-20T13:12:23;28.88;;;9.57;;
31386;SDS011;18017;50.124;8.688;2022-11-20T13:15:26;28.05;;;9.40;;
31386;SDS011;18017;50.124;8.688;2022-11-20T13:17:59;31.92;;;10.05;;
31386;SDS011;18017;50.124;8.688;2022-11-20T13:20:27;27.70;;;9.77;;
31386;SDS011;18017;50.124;8.688;2022-11-20T13:22:55;29.92;;;9.73;;
31386;SDS011;18017;50.124;8.688;2022-11-20T13:25:25;30.02;;;10.52;;
31386;SDS011;18017;50.124;8.688;2022-11-20T13:27:54;34.00;;;11.70;;
31386;SDS011;18017;50.124;8.688;2022-11-20T13:30:25;30.10;;;10.50;;
31386;SDS011;18017;50.124;8.688;2022-11-20T13:32:58;30.27;;;11.02;;
31386;SDS011;18017;50.124;8.688;2022-11-20T13:35:35;29.85;;;10.48;;
31386;SDS011;18017;50.124;8.688;2022-11-20T13:38:10;38.55;;;12.93;;
31386;SDS011;18017;50.124;8.688;2022-11-20T13:41:00;38.90;;;13.20;;
31386;SDS011;18017;50.124;8.688;2022-11-20T13:43:48;32.30;;;10.90;;
31386;SDS011;18017;50.124;8.688;2022-11-20T13:46:13;25.67;;;10.07;;
31386;SDS011;18017;50.124;8.688;2022-11-20T13:48:41;27.88;;;10.15;;
31386;SDS011;18017;50.124;8.688;2022-11-20T13:51:24;31.45;;;11.15;;
31386;SDS011;18017;50.124;8.688;2022-11-20T13:56:54;24.30;;;8.25;;
31386;SDS011;18017;50.124;8.688;2022-11-20T14:02:41;23.15;;;8.40;;
31386;SDS011;18017;50.124;8.688;2022-11-20T14:05:13;22.27;;;8.40;;
31386;SDS011;18017;50.124;8.688;2022-11-20T14:07:50;18.58;;;6.97;;
31386;SDS011;18017;50.124;8.688;2022-11-20T14:10:27;23.90;;;7.95;;
31386;SDS011;18017;50.124;8.688;2022-11-20T14:12:53;20.50;;;7.60;;
31386;SDS011;18017;50.124;8.688;2022-11-20T14:15:27;17.83;;;6.90;;
31386;SDS011;18017;50.124;8.688;2022-11-20T14:17:54;23.05;;;7.38;;
31386;SDS011;18017;50.124;8.688;2022-11-20T14:20:20;19.63;;;7.45;;
31386;SDS011;18017;50.124;8.688;2022-11-20T14:22:53;20.60;;;7.57;;
31386;SDS011;18017;50.124;8.688;2022-11-20T14:25:23;19.40;;;7.32;;
31386;SDS011;18017;50.124;8.688;2022-11-20T14:27:55;20.13;;;7.80;;
31386;SDS011;18017;50.124;8.688;2022-11-20T14:30:23;18.65;;;7.15;;
31386;SDS011;18017;50.124;8.688;2022-11-20T14:32:51;21.00;;;7.07;;
31386;SDS011;18017;50.124;8.688;2022-11-20T14:35:25;19.00;;;6.63;;
31386;SDS011;18017;50.124;8.688;2022-11-20T14:37:55;22.02;;;7.40;;
31386;SDS011;18017;50.124;8.688;2022-11-20T14:42:48;20.92;;;7.38;;
31386;SDS011;18017;50.124;8.688;2022-11-20T14:45:14;18.52;;;7.38;;
31386;SDS011;18017;50.124;8.688;2022-11-20T14:47:41;21.02;;;7.00;;
31386;SDS011;18017;50.124;8.688;2022-11-20T14:50:12;20.15;;;6.60;;
31386;SDS011;18017;50.124;8.688;2022-11-20T14:52:53;19.42;;;7.85;;
31386;SDS011;18017;50.124;8.688;2022-11-20T14:55:29;22.70;;;8.23;;
31386;SDS011;18017;50.124;8.688;2022-11-20T14:58:03;19.05;;;6.65;;
31386;SDS011;18017;50.124;8.688;2022-11-20T15:00:56;21.58;;;7.78;;
31386;SDS011;18017;50.124;8.688;2022-11-20T15:03:37;20.92;;;7.40;;
31386;SDS011;18017;50.124;8.688;2022-11-20T15:06:10;19.35;;;7.70;;
31386;SDS011;18017;50.124;8.688;2022-11-20T15:08:37;19.20;;;7.00;;
31386;SDS011;18017;50.124;8.688;2022-11-20T15:11:03;19.05;;;7.32;;
31386;SDS011;18017;50.124;8.688;2022-11-20T15:13:44;18.10;;;7.72;;
31386;SDS011;18017;50.124;8.688;2022-11-20T15:16:16;18.50;;;7.50;;
31386;SDS011;18017;50.124;8.688;2022-11-20T15:18:44;22.27;;;8.10;;
31386;SDS011;18017;50.124;8.688;2022-11-20T15:21:11;20.45;;;7.32;;
31386;SDS011;18017;50.124;8.688;2022-11-20T15:23:38;22.40;;;7.93;;
31386;SDS011;18017;50.124;8.688;2022-11-20T15:26:04;19.95;;;6.88;;
31386;SDS011;18017;50.124;8.688;2022-11-20T15:28:31;21.08;;;7.32;;
31386;SDS011;18017;50.124;8.688;2022-11-20T15:30:59;21.83;;;7.30;;
31386;SDS011;18017;50.124;8.688;2022-11-20T15:33:25;24.00;;;8.15;;
31386;SDS011;18017;50.124;8.688;2022-11-20T15:35:51;21.40;;;7.50;;
31386;SDS011;18017;50.124;8.688;2022-11-20T15:38:16;24.20;;;8.02;;
31386;SDS011;18017;50.124;8.688;2022-11-20T15:40:42;22.52;;;8.18;;
31386;SDS011;18017;50.124;8.688;2022-11-20T15:43:08;20.73;;;7.97;;
31386;SDS011;18017;50.124;8.688;2022-11-20T15:45:37;27.00;;;7.68;;
31386;SDS011;18017;50.124;8.688;2022-11-20T15:48:12;19.67;;;8.02;;
31386;SDS011;18017;50.124;8.688;2022-11-20T15:50:43;22.88;;;7.88;;
31386;SDS011;18017;50.124;8.688;2022-11-20T15:53:18;26.40;;;8.27;;
31386;SDS011;18017;50.124;8.688;2022-11-20T15:55:43;23.08;;;7.53;;
31386;SDS011;18017;50.124;8.688;2022-11-20T15:58:09;25.98;;;8.98;;
31386;SDS011;18017;50.124;8.688;2022-11-20T16:00:35;22.25;;;8.43;;
31386;SDS011;18017;50.124;8.688;2022-11-20T16:03:00;23.67;;;7.93;;
31386;SDS011;18017;50.124;8.688;2022-11-20T16:05:29;20.15;;;7.18;;
31386;SDS011;18017;50.124;8.688;2022-11-20T16:07:54;23.15;;;7.75;;
31386;SDS011;18017;50.124;8.688;2022-11-20T16:10:21;21.00;;;7.32;;
31386;SDS011;18017;50.124;8.688;2022-11-20T16:12:46;22.33;;;8.32;;
31386;SDS011;18017;50.124;8.688;2022-11-20T16:15:31;20.73;;;7.20;;
31386;SDS011;18017;50.124;8.688;2022-11-20T16:18:15;21.73;;;8.02;;
31386;SDS011;18017;50.124;8.688;2022-11-20T16:20:43;22.48;;;8.20;;